createdAt,value
2022-11-24T00:00:22.943Z,96003.63
2022-11-24T00:02:49.355Z,96002.94
2022-11-24T00:05:15.803Z,96010.31
2022-11-24T00:07:42.209Z,96002.34
2022-11-24T00:10:08.565Z,96010.31
2022-11-24T00:12:34.875Z,96012.16
2022-11-24T00:15:01.183Z,96002.66
2022-11-24T00:17:27.469Z,96008.00
2022-11-24T00:19:53.758Z,96001.47
2022-11-24T00:22:20.075Z,96002.34
2022-11-24T00:24:46.358Z,96012.06
2022-11-24T00:27:12.655Z,96015.03
2022-11-24T00:29:38.956Z,96014.44
2022-11-24T00:32:05.264Z,96018.28
2022-11-24T00:34:31.901Z,96026.41
2022-11-24T00:36:58.415Z,96029.28
2022-11-24T00:39:24.773Z,96031.19
2022-11-24T00:41:51.089Z,96019.16
2022-11-24T00:44:17.438Z,96018.25
2022-11-24T00:46:43.850Z,96027.78
2022-11-24T00:49:10.203Z,96026.81
2022-11-24T00:51:36.506Z,96027.69
2022-11-24T00:54:02.804Z,96023.06
2022-11-24T00:56:29.099Z,96025.09
2022-11-24T00:58:55.408Z,96029.63
2022-11-24T01:01:21.791Z,96036.63
2022-11-24T01:03:48.147Z,96041.25
2022-11-24T01:06:14.477Z,96058.06
2022-11-24T01:08:40.777Z,96054.09
2022-11-24T01:11:07.069Z,96048.34
2022-11-24T01:13:33.382Z,96053.34
2022-11-24T01:15:59.701Z,96059.16
2022-11-24T01:18:26.029Z,96049.47
2022-11-24T01:20:52.347Z,96043.66
2022-11-24T01:23:18.663Z,96049.97
2022-11-24T01:25:44.959Z,96044.84
2022-11-24T01:28:11.279Z,96051.44
2022-11-24T01:30:37.636Z,96054.63
2022-11-24T01:33:03.948Z,96068.22
2022-11-24T01:35:30.269Z,96061.84
2022-11-24T01:37:56.553Z,96070.81
2022-11-24T01:40:22.845Z,96072.50
2022-11-24T01:42:49.151Z,96072.81
2022-11-24T01:45:15.442Z,96074.97
2022-11-24T01:47:41.738Z,96064.66
2022-11-24T01:50:08.109Z,96054.59
2022-11-24T01:52:34.406Z,96060.53
2022-11-24T01:55:00.807Z,96071.75
2022-11-24T01:57:27.120Z,96070.19
2022-11-24T01:59:53.416Z,96078.09
2022-11-24T02:02:19.869Z,96078.09
2022-11-24T02:04:46.240Z,96084.50
2022-11-24T02:07:12.592Z,96080.22
2022-11-24T02:09:38.930Z,96088.38
2022-11-24T02:12:05.245Z,96098.69
2022-11-24T02:14:31.881Z,96095.50
2022-11-24T02:16:58.442Z,96092.66
2022-11-24T02:19:24.744Z,96108.56
2022-11-24T02:21:51.019Z,96105.00
2022-11-24T02:24:17.319Z,96101.81
2022-11-24T02:26:43.687Z,96105.66
2022-11-24T02:29:09.991Z,96106.47
2022-11-24T02:31:36.339Z,96102.84
2022-11-24T02:34:02.692Z,96104.75
2022-11-24T02:36:28.997Z,96093.69
2022-11-24T02:38:55.303Z,96094.97
2022-11-24T02:41:21.615Z,96100.16
2022-11-24T02:43:47.915Z,96106.91
2022-11-24T02:46:14.244Z,96112.91
2022-11-24T02:48:40.596Z,96106.78
2022-11-24T02:51:06.888Z,96098.69
2022-11-24T02:53:33.177Z,96109.69
2022-11-24T02:55:59.522Z,96103.38
2022-11-24T02:58:25.809Z,96092.34
2022-11-24T03:00:52.098Z,96099.78
2022-11-24T03:03:18.406Z,96092.38
2022-11-24T03:05:44.697Z,96095.91
2022-11-24T03:08:10.975Z,96093.25
2022-11-24T03:10:37.285Z,96091.72
2022-11-24T03:13:03.579Z,96108.41
2022-11-24T03:15:29.970Z,96104.38
2022-11-24T03:17:56.348Z,96101.53
2022-11-24T03:20:22.635Z,96112.13
2022-11-24T03:22:48.939Z,96118.44
2022-11-24T03:25:15.249Z,96111.25
2022-11-24T03:27:41.539Z,96109.34
2022-11-24T03:30:07.838Z,96107.84
2022-11-24T03:32:34.145Z,96103.47
2022-11-24T03:35:00.426Z,96111.03
2022-11-24T03:37:26.720Z,96124.53
2022-11-24T03:39:53.045Z,96128.44
2022-11-24T03:42:19.345Z,96140.50
2022-11-24T03:44:45.655Z,96137.38
2022-11-24T03:47:11.960Z,96127.38
2022-11-24T03:49:38.261Z,96130.91
2022-11-24T03:52:08.021Z,96131.97
2022-11-24T03:54:34.884Z,96129.19
2022-11-24T03:57:01.367Z,96127.22
2022-11-24T03:59:27.665Z,96137.44
2022-11-24T04:01:54.086Z,96142.66
2022-11-24T04:04:20.419Z,96135.22
2022-11-24T04:06:46.715Z,96137.56
2022-11-24T04:09:13.034Z,96144.09
2022-11-24T04:11:39.335Z,96142.34
2022-11-24T04:14:10.462Z,96134.91
2022-11-24T04:16:39.595Z,96140.53
2022-11-24T04:19:05.932Z,96140.44
2022-11-24T04:21:32.225Z,96144.47
2022-11-24T04:23:58.533Z,96148.84
2022-11-24T04:26:24.825Z,96159.47
2022-11-24T04:28:51.115Z,96155.69
2022-11-24T04:31:17.462Z,96158.91
2022-11-24T04:33:43.788Z,96158.47
2022-11-24T04:36:10.072Z,96158.03
2022-11-24T04:39:19.881Z,96161.59
2022-11-24T04:41:22.677Z,96151.66
2022-11-24T04:43:48.983Z,96159.91
2022-11-24T04:46:15.293Z,96163.88
2022-11-24T04:48:41.624Z,96178.56
2022-11-24T04:51:07.927Z,96173.03
2022-11-24T04:53:34.215Z,96180.91
2022-11-24T04:56:00.512Z,96171.47
2022-11-24T04:58:26.826Z,96174.66
2022-11-24T05:00:53.133Z,96180.28
2022-11-24T05:03:19.441Z,96174.72
2022-11-24T05:05:45.802Z,96170.75
2022-11-24T05:08:12.106Z,96166.34
2022-11-24T05:10:38.401Z,96183.41
2022-11-24T05:13:04.705Z,96188.16
2022-11-24T05:15:31.000Z,96190.88
2022-11-24T05:17:57.308Z,96183.47
2022-11-24T05:20:23.633Z,96180.34
2022-11-24T05:22:49.940Z,96176.66
2022-11-24T05:25:16.235Z,96180.06
2022-11-24T05:27:42.556Z,96180.06
2022-11-24T05:30:08.953Z,96170.22
2022-11-24T05:32:35.247Z,96182.47
2022-11-24T05:35:01.555Z,96172.25
2022-11-24T05:37:27.839Z,96174.66
2022-11-24T05:39:54.132Z,96189.00
2022-11-24T05:42:20.451Z,96181.97
2022-11-24T05:44:46.760Z,96191.00
2022-11-24T05:47:13.054Z,96192.91
2022-11-24T05:49:39.359Z,96202.84
2022-11-24T05:52:05.661Z,96200.75
2022-11-24T05:54:32.114Z,96200.00
2022-11-24T05:56:58.738Z,96194.16
2022-11-24T05:59:25.036Z,96198.09
2022-11-24T06:01:51.449Z,96195.28
2022-11-24T06:04:17.829Z,96192.97
2022-11-24T06:06:44.168Z,96187.38
2022-11-24T06:09:10.461Z,96182.28
2022-11-24T06:11:36.827Z,96181.13
2022-11-24T06:14:05.792Z,96171.56
2022-11-24T06:16:36.128Z,96182.69
2022-11-24T06:19:02.545Z,96181.88
2022-11-24T06:21:28.837Z,96186.19
2022-11-24T06:23:55.134Z,96181.84
2022-11-24T06:26:21.453Z,96187.34
2022-11-24T06:28:47.754Z,96186.16
2022-11-24T06:31:14.064Z,96192.13
2022-11-24T06:33:40.408Z,96195.19
2022-11-24T06:36:06.791Z,96199.53
2022-11-24T06:38:33.113Z,96186.53
2022-11-24T06:40:59.422Z,96184.88
2022-11-24T06:43:25.721Z,96174.31
2022-11-24T06:45:52.119Z,96177.00
2022-11-24T06:48:18.453Z,96180.25
2022-11-24T06:50:44.759Z,96188.56
2022-11-24T06:53:11.060Z,96202.28
2022-11-24T06:55:37.372Z,96199.88
2022-11-24T06:58:03.659Z,96199.16
2022-11-24T07:00:29.973Z,96200.00
2022-11-24T07:02:56.298Z,96196.34
2022-11-24T07:05:22.643Z,96200.31
2022-11-24T07:07:50.837Z,96197.09
2022-11-24T07:10:17.401Z,96197.16
2022-11-24T07:12:43.698Z,96200.66
2022-11-24T07:15:10.014Z,96213.25
2022-11-24T07:17:36.378Z,96218.47
2022-11-24T07:20:02.677Z,96220.25
2022-11-24T07:22:28.975Z,96229.81
2022-11-24T07:24:55.283Z,96232.19
2022-11-24T07:27:21.702Z,96229.81
2022-11-24T07:29:48.018Z,96234.13
2022-11-24T07:32:14.363Z,96226.59
2022-11-24T07:34:40.686Z,96232.25
2022-11-24T07:37:06.971Z,96229.81
2022-11-24T07:39:33.288Z,96233.25
2022-11-24T07:41:59.574Z,96229.22
2022-11-24T07:44:25.875Z,96227.66
2022-11-24T07:46:52.183Z,96230.78
2022-11-24T07:49:18.494Z,96230.19
2022-11-24T07:51:44.803Z,96234.44
2022-11-24T07:54:11.297Z,96235.72
2022-11-24T07:56:37.600Z,96231.63
2022-11-24T07:59:03.928Z,96228.38
2022-11-24T08:01:30.268Z,96228.44
2022-11-24T08:03:56.629Z,96226.78
2022-11-24T08:06:26.190Z,96224.41
2022-11-24T08:08:55.363Z,96234.53
2022-11-24T08:11:21.667Z,96242.94
2022-11-24T08:13:47.957Z,96253.22
2022-11-24T08:16:14.451Z,96247.63
2022-11-24T08:18:40.857Z,96255.59
2022-11-24T08:21:07.158Z,96264.59
2022-11-24T08:23:33.517Z,96272.75
2022-11-24T08:25:59.813Z,96272.47
2022-11-24T08:28:26.094Z,96274.28
2022-11-24T08:30:52.556Z,96277.69
2022-11-24T08:33:18.964Z,96288.81
2022-11-24T08:35:45.264Z,96282.13
2022-11-24T08:38:12.067Z,96276.94
2022-11-24T08:40:38.406Z,96284.03
2022-11-24T08:43:04.695Z,96291.13
2022-11-24T08:45:31.155Z,96291.97
2022-11-24T08:47:58.230Z,96296.22
2022-11-24T08:50:24.520Z,96299.03
2022-11-24T08:52:50.823Z,96307.44
2022-11-24T08:55:17.108Z,96309.09
2022-11-24T08:57:43.422Z,96312.66
2022-11-24T09:00:09.727Z,96313.25
2022-11-24T09:02:36.026Z,96311.38
2022-11-24T09:05:02.315Z,96319.94
2022-11-24T09:07:28.668Z,96314.88
2022-11-24T09:09:54.997Z,96318.72
2022-11-24T09:12:21.295Z,96313.94
2022-11-24T09:14:47.604Z,96321.03
2022-11-24T09:17:13.982Z,96317.34
2022-11-24T09:19:40.319Z,96330.72
2022-11-24T09:22:06.624Z,96319.19
2022-11-24T09:24:32.911Z,96316.31
2022-11-24T09:26:59.209Z,96330.09
2022-11-24T09:29:25.546Z,96321.91
2022-11-24T09:31:51.827Z,96336.28
2022-11-24T09:34:18.117Z,96334.44
2022-11-24T09:36:44.436Z,96337.69
2022-11-24T09:39:10.733Z,96342.78
2022-11-24T09:41:37.029Z,96344.22
2022-11-24T09:44:03.340Z,96341.53
2022-11-24T09:46:29.684Z,96339.78
2022-11-24T09:48:56.019Z,96339.84
2022-11-24T09:51:22.349Z,96342.97
2022-11-24T09:53:48.647Z,96351.22
2022-11-24T09:56:14.943Z,96352.00
2022-11-24T09:58:41.249Z,96349.28
2022-11-24T10:01:07.598Z,96355.56
2022-11-24T10:03:33.916Z,96347.69
2022-11-24T10:06:00.245Z,96351.22
2022-11-24T10:08:26.550Z,96341.88
2022-11-24T10:10:52.847Z,96344.31
2022-11-24T10:13:19.155Z,96338.31
2022-11-24T10:15:45.515Z,96346.13
2022-11-24T10:18:16.405Z,96340.19
2022-11-24T10:20:43.228Z,96353.72
2022-11-24T10:23:09.531Z,96355.19
2022-11-24T10:25:35.829Z,96349.53
2022-11-24T10:28:02.172Z,96351.75
2022-11-24T10:30:28.468Z,96360.00
2022-11-24T10:32:54.763Z,96354.16
2022-11-24T10:35:21.127Z,96351.44
2022-11-24T10:37:47.442Z,96353.69
2022-11-24T10:40:33.367Z,96351.66
2022-11-24T10:43:00.089Z,96352.16
2022-11-24T10:45:26.388Z,96354.38
2022-11-24T10:47:52.675Z,96362.34
2022-11-24T10:50:18.991Z,96365.00
2022-11-24T10:52:45.296Z,96359.44
2022-11-24T10:55:11.583Z,96347.06
2022-11-24T10:57:37.883Z,96338.72
2022-11-24T11:00:04.482Z,96343.38
2022-11-24T11:02:30.857Z,96346.59
2022-11-24T11:04:57.240Z,96345.63
2022-11-24T11:07:23.570Z,96359.47
2022-11-24T11:09:49.899Z,96366.34
2022-11-24T11:12:45.450Z,96366.78
2022-11-24T11:15:02.615Z,96356.59
2022-11-24T11:17:28.936Z,96361.72
2022-11-24T11:20:01.687Z,96356.03
2022-11-24T11:22:28.746Z,96362.38
2022-11-24T11:24:55.045Z,96363.28
2022-11-24T11:27:21.343Z,96360.50
2022-11-24T11:35:20.214Z,96363.94
2022-11-24T11:37:46.527Z,96366.56
2022-11-24T11:40:15.921Z,96374.16
2022-11-24T11:45:28.636Z,96363.66
2022-11-24T11:47:55.029Z,96368.06
2022-11-24T11:50:21.343Z,96376.47
2022-11-24T11:52:47.659Z,96368.25
2022-11-24T11:55:13.957Z,96365.41
2022-11-24T11:57:40.239Z,96371.69
2022-11-24T12:00:06.518Z,96371.78
2022-11-24T12:02:32.865Z,96364.09
2022-11-24T12:04:59.213Z,96354.53
2022-11-24T12:07:25.530Z,96355.19
2022-11-24T12:09:51.891Z,96355.66
2022-11-24T12:12:18.189Z,96359.84
2022-11-24T12:14:44.490Z,96355.84
2022-11-24T12:17:10.816Z,96358.94
2022-11-24T12:19:37.221Z,96358.09
2022-11-24T12:22:03.667Z,96361.22
2022-11-24T12:24:29.994Z,96351.06
2022-11-24T12:26:56.324Z,96352.19
2022-11-24T12:29:22.611Z,96354.41
2022-11-24T12:31:48.973Z,96346.09
2022-11-24T12:34:15.293Z,96352.03
2022-11-24T12:36:41.593Z,96337.50
2022-11-24T12:39:07.930Z,96335.69
2022-11-24T12:41:41.832Z,96349.66
2022-11-24T12:44:08.943Z,96341.66
2022-11-24T12:46:35.301Z,96348.72
2022-11-24T12:49:01.804Z,96337.38
2022-11-24T12:51:28.123Z,96336.94
2022-11-24T12:53:54.423Z,96334.53
2022-11-24T12:56:20.722Z,96328.06
2022-11-24T12:58:47.040Z,96334.88
2022-11-24T13:01:16.766Z,96324.19
2022-11-24T13:03:43.374Z,96328.53
2022-11-24T13:06:09.690Z,96324.53
2022-11-24T13:08:35.981Z,96327.31
2022-11-24T13:11:02.270Z,96318.97
2022-11-24T13:13:28.704Z,96318.91
2022-11-24T13:16:34.690Z,96316.84
2022-11-24T13:18:41.394Z,96319.66
2022-11-24T13:21:07.712Z,96313.31
2022-11-24T13:23:34.022Z,96309.06
2022-11-24T13:26:00.350Z,96313.06
2022-11-24T13:28:53.876Z,96298.00
2022-11-24T13:31:12.975Z,96297.34
2022-11-24T13:33:39.291Z,96292.06
2022-11-24T13:36:05.662Z,96290.00
2022-11-24T13:38:31.981Z,96285.38
2022-11-24T13:41:13.421Z,96288.44
2022-11-24T13:43:44.579Z,96290.06
2022-11-24T13:46:11.049Z,96286.56
2022-11-24T13:48:37.413Z,96284.31
2022-11-24T13:51:03.770Z,96278.88
2022-11-24T13:53:30.702Z,96274.25
2022-11-24T13:55:57.219Z,96273.88
2022-11-24T13:58:23.659Z,96270.09
2022-11-24T14:00:52.948Z,96256.47
2022-11-24T14:03:20.544Z,96267.31
2022-11-24T14:05:46.981Z,96260.63
2022-11-24T14:08:13.307Z,96257.03
2022-11-24T14:10:39.609Z,96252.19
2022-11-24T14:13:05.960Z,96251.56
2022-11-24T14:15:32.270Z,96251.84
2022-11-24T14:17:58.651Z,96253.41
2022-11-24T14:20:24.972Z,96255.41
2022-11-24T14:22:51.288Z,96257.19
2022-11-24T14:25:17.606Z,96248.00
2022-11-24T14:27:43.924Z,96246.91
2022-11-24T14:30:10.215Z,96246.03
2022-11-24T14:32:36.545Z,96244.13
2022-11-24T14:35:03.007Z,96242.34
2022-11-24T14:37:29.302Z,96239.06
2022-11-24T14:39:55.600Z,96236.84
2022-11-24T14:42:26.554Z,96225.16
2022-11-24T14:44:52.862Z,96216.75
2022-11-24T14:47:19.173Z,96211.31
2022-11-24T14:49:45.550Z,96200.13
2022-11-24T14:52:11.844Z,96201.19
2022-11-24T14:54:38.152Z,96205.56
2022-11-24T14:57:04.515Z,96198.91
2022-11-24T14:59:30.811Z,96201.06
2022-11-24T15:01:57.170Z,96204.09
2022-11-24T15:07:10.686Z,96195.50
2022-11-24T15:09:37.041Z,96205.06
2022-11-24T15:12:03.352Z,96201.38
2022-11-24T15:14:31.824Z,96197.34
2022-11-24T15:16:58.316Z,96187.63
2022-11-24T15:19:24.703Z,96197.13
2022-11-24T15:21:50.995Z,96194.19
2022-11-24T15:24:17.312Z,96200.13
2022-11-24T15:26:43.611Z,96198.38
2022-11-24T15:29:09.912Z,96206.72
2022-11-24T15:31:36.291Z,96209.63
2022-11-24T15:34:02.633Z,96207.31
2022-11-24T15:36:28.926Z,96217.63
2022-11-24T15:38:55.235Z,96231.69
2022-11-24T15:41:21.525Z,96230.09
2022-11-24T15:43:47.818Z,96233.88
2022-11-24T15:46:14.183Z,96229.13
2022-11-24T15:48:40.546Z,96219.91
2022-11-24T15:51:06.847Z,96211.81
2022-11-24T15:53:33.164Z,96218.09
2022-11-24T15:55:59.465Z,96211.81
2022-11-24T15:58:25.753Z,96220.09
2022-11-24T16:00:52.126Z,96230.16
2022-11-24T16:03:45.774Z,96246.03
2022-11-24T16:06:04.745Z,96244.47
2022-11-24T16:08:31.030Z,96238.91
2022-11-24T16:10:57.318Z,96240.66
2022-11-24T16:13:23.642Z,96243.22
2022-11-24T16:15:50.065Z,96234.47
2022-11-24T16:18:16.464Z,96243.75
2022-11-24T16:20:42.807Z,96237.47
2022-11-24T16:23:09.111Z,96249.72
2022-11-24T16:25:35.413Z,96251.19
2022-11-24T16:28:01.763Z,96247.31
2022-11-24T16:30:28.054Z,96250.44
2022-11-24T16:32:54.357Z,96240.19
2022-11-24T16:35:20.672Z,96251.41
2022-11-24T16:37:50.158Z,96248.28
2022-11-24T16:40:16.447Z,96249.84
2022-11-24T16:42:42.754Z,96254.19
2022-11-24T16:45:09.055Z,96262.63
2022-11-24T16:47:35.351Z,96269.53
2022-11-24T16:50:01.706Z,96259.66
2022-11-24T16:52:28.011Z,96253.56
2022-11-24T16:54:54.301Z,96245.34
2022-11-24T16:57:20.602Z,96251.66
2022-11-24T16:59:46.886Z,96255.22
2022-11-24T17:02:13.304Z,96256.09
2022-11-24T17:04:39.716Z,96250.47
2022-11-24T17:07:06.022Z,96250.81
2022-11-24T17:09:35.992Z,96246.84
2022-11-24T17:12:06.380Z,96246.00
2022-11-24T17:14:32.961Z,96247.09
2022-11-24T17:16:59.626Z,96251.94
2022-11-24T17:19:26.270Z,96246.06
2022-11-24T17:21:52.592Z,96239.66
2022-11-24T17:24:18.873Z,96245.94
2022-11-24T17:26:48.941Z,96251.22
2022-11-24T17:29:15.588Z,96251.59
2022-11-24T17:31:41.906Z,96251.16
2022-11-24T17:34:08.268Z,96242.59
2022-11-24T17:36:34.565Z,96236.94
2022-11-24T17:39:00.855Z,96241.81
2022-11-24T17:41:27.191Z,96242.22
2022-11-24T17:43:53.486Z,96246.84
2022-11-24T17:46:19.888Z,96234.22
2022-11-24T17:48:46.256Z,96234.94
2022-11-24T17:51:12.552Z,96240.84
2022-11-24T17:53:38.868Z,96238.00
2022-11-24T17:56:05.665Z,96239.31
2022-11-24T17:58:32.096Z,96233.72
2022-11-24T18:00:58.484Z,96236.44
2022-11-24T18:03:24.887Z,96234.41
2022-11-24T18:05:51.342Z,96229.78
2022-11-24T18:08:17.689Z,96228.97
2022-11-24T18:10:45.113Z,96220.22
2022-11-24T18:13:22.321Z,96227.41
2022-11-24T18:15:58.389Z,96235.47
2022-11-24T18:18:24.701Z,96229.88
2022-11-24T18:20:51.017Z,96233.81
2022-11-24T18:23:17.352Z,96248.56
2022-11-24T18:25:43.661Z,96244.44
2022-11-24T18:28:09.969Z,96246.34
2022-11-24T18:30:36.304Z,96247.59
2022-11-24T18:33:02.627Z,96253.34
2022-11-24T18:35:28.937Z,96251.00
2022-11-24T18:37:55.245Z,96254.47
2022-11-24T18:40:21.544Z,96262.09
2022-11-24T18:42:47.849Z,96262.34
2022-11-24T18:45:14.166Z,96268.22
2022-11-24T18:47:40.473Z,96273.44
2022-11-24T18:50:06.759Z,96265.09
2022-11-24T18:52:33.069Z,96260.47
2022-11-24T18:54:59.680Z,96263.16
2022-11-24T18:57:26.059Z,96257.22
2022-11-24T18:59:52.375Z,96255.13
2022-11-24T19:02:18.746Z,96248.31
2022-11-24T19:04:45.075Z,96244.88
2022-11-24T19:07:11.453Z,96232.72
2022-11-24T19:09:37.764Z,96241.97
2022-11-24T19:12:04.223Z,96228.16
2022-11-24T19:14:30.634Z,96241.56
2022-11-24T19:16:56.974Z,96242.03
2022-11-24T19:19:23.303Z,96246.72
2022-11-24T19:21:49.616Z,96246.41
2022-11-24T19:24:15.905Z,96239.97
2022-11-24T19:26:42.196Z,96249.94
2022-11-24T19:29:08.498Z,96236.75
2022-11-24T19:31:34.894Z,96238.84
2022-11-24T19:34:01.267Z,96245.94
2022-11-24T19:36:27.570Z,96238.06
2022-11-24T19:38:53.858Z,96232.44
2022-11-24T19:41:20.136Z,96226.09
2022-11-24T19:43:46.438Z,96234.03
2022-11-24T19:46:12.857Z,96238.06
2022-11-24T19:48:39.206Z,96227.69
2022-11-24T19:51:05.525Z,96236.44
2022-11-24T19:53:31.819Z,96238.41
2022-11-24T19:55:58.358Z,96241.19
2022-11-24T19:58:24.904Z,96244.72
2022-11-24T20:00:51.432Z,96246.75
2022-11-24T20:03:17.839Z,96239.56
2022-11-24T20:05:44.144Z,96239.78
2022-11-24T20:08:10.456Z,96239.69
2022-11-24T20:10:36.773Z,96241.47
2022-11-24T20:13:04.495Z,96241.97
2022-11-24T20:15:32.362Z,96237.63
2022-11-24T20:17:58.664Z,96234.44
2022-11-24T20:20:25.044Z,96225.34
2022-11-24T20:22:51.358Z,96234.84
2022-11-24T20:25:17.686Z,96244.72
2022-11-24T20:27:44.027Z,96227.69
2022-11-24T20:30:10.339Z,96233.22
2022-11-24T20:32:36.660Z,96236.34
2022-11-24T20:35:02.969Z,96234.78
2022-11-24T20:37:29.818Z,96230.75
2022-11-24T20:39:56.123Z,96233.81
2022-11-24T20:42:22.502Z,96236.09
2022-11-24T20:44:48.803Z,96243.34
2022-11-24T20:47:15.097Z,96246.94
2022-11-24T20:49:41.423Z,96257.56
2022-11-24T20:52:07.710Z,96258.38
2022-11-24T20:54:34.994Z,96250.91
2022-11-24T20:57:01.548Z,96253.69
2022-11-24T20:59:27.835Z,96242.16
2022-11-24T21:01:54.222Z,96251.19
2022-11-24T21:04:20.611Z,96256.00
2022-11-24T21:06:46.907Z,96250.41
2022-11-24T21:09:13.196Z,96256.00
2022-11-24T21:11:39.506Z,96259.19
2022-11-24T21:14:05.804Z,96257.59
2022-11-24T21:16:32.144Z,96272.59
2022-11-24T21:18:58.504Z,96271.84
2022-11-24T21:21:24.971Z,96267.81
2022-11-24T21:23:51.273Z,96259.66
2022-11-24T21:26:17.636Z,96258.69
2022-11-24T21:28:45.280Z,96255.06
2022-11-24T21:31:11.637Z,96263.75
2022-11-24T21:33:38.039Z,96267.75
2022-11-24T21:36:04.336Z,96270.91
2022-11-24T21:38:30.627Z,96270.50
2022-11-24T21:40:56.952Z,96273.94
2022-11-24T21:43:23.234Z,96275.22
2022-11-24T21:45:49.554Z,96273.94
2022-11-24T21:48:17.510Z,96276.03
2022-11-24T21:50:43.804Z,96275.94
2022-11-24T21:53:10.103Z,96278.44
2022-11-24T21:55:36.475Z,96287.13
2022-11-24T21:58:02.768Z,96291.09
2022-11-24T22:00:29.076Z,96291.50
2022-11-24T22:02:55.400Z,96296.28
2022-11-24T22:05:21.705Z,96287.03
2022-11-24T22:07:48.068Z,96291.84
2022-11-24T22:10:14.457Z,96285.72
2022-11-24T22:12:40.760Z,96300.31
2022-11-24T22:15:07.050Z,96305.03
2022-11-24T22:17:33.366Z,96301.34
2022-11-24T22:19:59.667Z,96301.25
2022-11-24T22:22:25.971Z,96301.75
2022-11-24T22:24:52.293Z,96299.13
2022-11-24T22:27:18.574Z,96297.63
2022-11-24T22:29:44.870Z,96297.78
2022-11-24T22:32:11.229Z,96302.25
2022-11-24T22:34:37.751Z,96303.00
2022-11-24T22:37:04.183Z,96309.06
2022-11-24T22:39:30.496Z,96307.16
2022-11-24T22:41:56.796Z,96312.66
2022-11-24T22:44:23.106Z,96309.84
2022-11-24T22:46:49.420Z,96320.72
2022-11-24T22:49:15.721Z,96313.41
2022-11-24T22:51:42.019Z,96315.34
2022-11-24T22:54:08.327Z,96316.94
2022-11-24T22:56:34.627Z,96319.31
2022-11-24T22:59:00.929Z,96326.03
2022-11-24T23:01:27.255Z,96314.09
2022-11-24T23:03:53.617Z,96314.91
2022-11-24T23:06:19.970Z,96307.44
2022-11-24T23:08:46.294Z,96299.03
2022-11-24T23:11:12.586Z,96304.59
2022-11-24T23:13:38.886Z,96311.78
2022-11-24T23:16:05.294Z,96304.50
2022-11-24T23:18:31.624Z,96305.38
2022-11-24T23:20:57.932Z,96320.34
2022-11-24T23:23:24.234Z,96323.53
2022-11-24T23:25:50.520Z,96322.00
2022-11-24T23:28:16.820Z,96330.75
2022-11-24T23:30:43.131Z,96327.63
2022-11-24T23:33:09.418Z,96325.13
2022-11-24T23:35:35.704Z,96331.84
2022-11-24T23:38:09.284Z,96335.41
2022-11-24T23:40:35.591Z,96340.28
2022-11-24T23:43:01.904Z,96336.31
2022-11-24T23:45:28.237Z,96342.53
2022-11-24T23:47:54.553Z,96340.16
2022-11-24T23:50:20.864Z,96334.63
2022-11-24T23:52:47.172Z,96330.28
2022-11-24T23:55:13.469Z,96340.66
2022-11-24T23:57:39.783Z,96344.13
